createdAt,value
2023-01-30T00:01:14.165Z,56.80
2023-01-30T00:03:41.199Z,56.35
2023-01-30T00:06:08.266Z,56.03
2023-01-30T00:08:35.294Z,51.35
2023-01-30T00:11:09.062Z,51.45
2023-01-30T00:13:36.166Z,54.72
2023-01-30T00:16:03.237Z,61.17
2023-01-30T00:18:30.300Z,52.75
2023-01-30T00:21:00.642Z,52.42
2023-01-30T00:23:28.065Z,53.45
2023-01-30T00:25:55.403Z,56.25
2023-01-30T00:28:22.673Z,54.53
2023-01-30T00:30:50.541Z,59.38
2023-01-30T00:33:17.765Z,59.70
2023-01-30T00:35:46.036Z,61.65
2023-01-30T00:38:13.962Z,57.03
2023-01-30T00:40:40.979Z,62.67
2023-01-30T00:43:26.536Z,56.70
2023-01-30T00:46:11.987Z,56.47
2023-01-30T00:48:38.969Z,62.45
2023-01-30T00:51:06.074Z,57.58
2023-01-30T00:53:33.123Z,57.83
2023-01-30T00:56:00.167Z,61.95
2023-01-30T00:58:27.208Z,62.00
2023-01-30T01:00:54.294Z,62.63
2023-01-30T01:03:21.394Z,59.45
2023-01-30T01:05:48.558Z,60.22
2023-01-30T01:08:15.767Z,57.67
2023-01-30T01:10:42.815Z,65.03
2023-01-30T01:13:10.451Z,60.60
2023-01-30T01:15:37.525Z,59.75
2023-01-30T01:18:04.500Z,59.97
2023-01-30T01:20:31.511Z,58.50
2023-01-30T01:22:58.545Z,62.47
2023-01-30T01:25:25.996Z,63.85
2023-01-30T01:27:53.025Z,55.97
2023-01-30T01:30:20.273Z,60.05
2023-01-30T01:32:47.284Z,59.67
2023-01-30T01:35:14.301Z,56.20
2023-01-30T01:37:41.298Z,57.03
2023-01-30T01:40:27.391Z,55.58
2023-01-30T01:42:54.426Z,59.33
2023-01-30T01:45:24.617Z,53.22
2023-01-30T01:48:02.232Z,53.63
2023-01-30T01:50:30.934Z,58.05
2023-01-30T01:52:57.997Z,55.20
2023-01-30T01:55:25.175Z,53.13
2023-01-30T01:58:03.823Z,54.30
2023-01-30T02:00:30.861Z,57.50
2023-01-30T02:02:58.568Z,53.90
2023-01-30T02:05:26.418Z,57.60
2023-01-30T02:08:07.013Z,51.88
2023-01-30T02:13:01.044Z,51.90
2023-01-30T02:15:28.123Z,54.22
2023-01-30T02:17:55.134Z,53.25
2023-01-30T02:20:25.769Z,54.25
2023-01-30T02:25:22.905Z,52.00
2023-01-30T02:28:04.866Z,51.28
2023-01-30T02:30:35.066Z,52.83
2023-01-30T02:33:22.845Z,53.05
2023-01-30T02:35:49.993Z,49.70
2023-01-30T02:38:32.362Z,50.78
2023-01-30T02:41:03.639Z,48.10
2023-01-30T02:43:49.548Z,49.05
2023-01-30T02:46:18.661Z,55.90
2023-01-30T02:48:56.444Z,50.50
2023-01-30T02:51:28.606Z,52.03
2023-01-30T02:53:55.759Z,51.55
2023-01-30T02:56:23.011Z,52.42
2023-01-30T02:58:50.676Z,49.58
2023-01-30T03:01:29.926Z,49.78
2023-01-30T03:04:02.768Z,52.53
2023-01-30T03:06:29.808Z,50.50
2023-01-30T03:08:56.854Z,54.85
2023-01-30T03:11:25.096Z,51.42
2023-01-30T03:13:56.782Z,56.25
2023-01-30T03:16:26.279Z,49.25
2023-01-30T03:18:53.341Z,43.28
2023-01-30T03:21:20.371Z,49.45
2023-01-30T03:23:47.450Z,48.67
2023-01-30T03:26:33.748Z,47.17
2023-01-30T03:29:00.760Z,45.92
2023-01-30T03:31:27.886Z,43.38
2023-01-30T03:33:54.978Z,41.65
2023-01-30T03:36:22.029Z,45.45
2023-01-30T03:38:49.048Z,43.80
2023-01-30T03:41:16.086Z,45.03
2023-01-30T03:43:43.163Z,48.00
2023-01-30T03:46:10.258Z,47.15
2023-01-30T03:48:37.254Z,48.63
2023-01-30T03:51:04.369Z,47.05
2023-01-30T03:53:31.380Z,49.25
2023-01-30T03:55:58.411Z,48.75
2023-01-30T03:58:25.541Z,51.08
2023-01-30T04:00:52.578Z,43.88
2023-01-30T04:03:19.644Z,45.95
2023-01-30T04:05:46.664Z,48.47
2023-01-30T04:08:13.722Z,45.08
2023-01-30T04:10:40.711Z,46.47
2023-01-30T04:13:07.723Z,44.22
2023-01-30T04:15:34.733Z,42.35
2023-01-30T04:18:01.756Z,47.47
2023-01-30T04:20:28.775Z,40.83
2023-01-30T04:22:58.174Z,46.35
2023-01-30T04:25:25.201Z,41.72
2023-01-30T04:27:52.240Z,45.13
2023-01-30T04:30:19.313Z,42.25
2023-01-30T04:32:46.365Z,43.40
2023-01-30T04:35:13.458Z,42.45
2023-01-30T04:37:40.551Z,42.08
2023-01-30T04:40:07.908Z,46.63
2023-01-30T04:42:34.917Z,41.20
2023-01-30T04:45:01.942Z,37.50
2023-01-30T04:47:29.028Z,41.65
2023-01-30T04:49:56.110Z,39.47
2023-01-30T04:52:23.118Z,38.50
2023-01-30T04:54:50.119Z,38.72
2023-01-30T04:57:17.163Z,42.13
2023-01-30T04:59:44.157Z,42.25
2023-01-30T05:02:11.159Z,42.72
2023-01-30T05:04:38.156Z,37.95
2023-01-30T05:07:05.250Z,43.45
2023-01-30T05:09:32.221Z,36.95
2023-01-30T05:11:59.313Z,39.20
2023-01-30T05:14:26.297Z,40.75
2023-01-30T05:16:53.318Z,36.25
2023-01-30T05:19:20.407Z,34.75
2023-01-30T05:21:47.416Z,32.75
2023-01-30T05:24:14.414Z,37.58
2023-01-30T05:26:41.528Z,31.27
2023-01-30T05:29:08.543Z,33.40
2023-01-30T05:31:35.791Z,40.75
2023-01-30T05:34:02.887Z,33.05
2023-01-30T05:36:29.929Z,31.63
2023-01-30T05:38:56.964Z,33.47
2023-01-30T05:41:23.993Z,30.17
2023-01-30T05:43:51.198Z,30.75
2023-01-30T05:46:18.373Z,33.88
2023-01-30T05:48:45.387Z,32.33
2023-01-30T05:51:16.636Z,30.55
2023-01-30T05:53:43.606Z,32.17
2023-01-30T05:56:10.632Z,30.45
2023-01-30T05:58:37.714Z,30.23
2023-01-30T06:01:05.399Z,30.35
2023-01-30T06:03:32.548Z,28.38
2023-01-30T06:05:59.557Z,27.60
2023-01-30T06:08:26.590Z,26.27
2023-01-30T06:10:53.605Z,32.78
2023-01-30T06:13:20.631Z,26.90
2023-01-30T06:15:47.671Z,28.10
2023-01-30T06:18:14.773Z,28.90
2023-01-30T06:20:41.799Z,24.70
2023-01-30T06:23:08.794Z,27.30
2023-01-30T06:25:35.767Z,28.33
2023-01-30T06:28:02.775Z,28.90
2023-01-30T06:30:29.860Z,25.60
2023-01-30T06:32:56.899Z,26.15
2023-01-30T06:35:23.914Z,25.25
2023-01-30T06:37:50.916Z,24.67
2023-01-30T06:40:18.065Z,25.25
2023-01-30T06:42:48.312Z,21.40
2023-01-30T06:45:16.408Z,22.55
2023-01-30T06:47:53.439Z,23.45
2023-01-30T06:50:21.093Z,21.73
2023-01-30T06:52:48.943Z,23.35
2023-01-30T06:55:17.451Z,21.48
2023-01-30T06:57:44.738Z,20.13
2023-01-30T07:00:12.806Z,23.08
2023-01-30T07:02:39.829Z,20.17
2023-01-30T07:05:07.313Z,19.75
2023-01-30T07:07:34.488Z,19.52
2023-01-30T07:10:08.274Z,20.65
2023-01-30T07:12:36.198Z,23.58
2023-01-30T07:15:03.405Z,19.88
2023-01-30T07:17:30.414Z,23.35
2023-01-30T07:19:57.534Z,18.80
2023-01-30T07:22:24.539Z,19.10
2023-01-30T07:24:51.547Z,20.15
2023-01-30T07:27:18.519Z,19.67
2023-01-30T07:29:45.560Z,17.98
2023-01-30T07:32:18.342Z,17.45
2023-01-30T07:34:45.447Z,15.60
2023-01-30T07:37:12.485Z,15.35
2023-01-30T07:39:39.581Z,17.02
2023-01-30T07:42:06.665Z,13.40
2023-01-30T07:44:34.195Z,12.32
2023-01-30T07:47:01.409Z,15.38
2023-01-30T07:49:28.654Z,13.77
2023-01-30T07:51:55.642Z,13.82
2023-01-30T07:54:22.654Z,13.98
2023-01-30T07:56:49.638Z,12.70
2023-01-30T07:59:16.683Z,15.10
2023-01-30T08:01:43.783Z,13.73
2023-01-30T08:04:10.829Z,14.10
2023-01-30T08:06:39.538Z,15.70
2023-01-30T08:09:07.000Z,19.80
2023-01-30T08:11:34.161Z,16.13
2023-01-30T08:14:01.232Z,16.80
2023-01-30T08:16:28.395Z,15.10
2023-01-30T08:18:55.467Z,11.40
2023-01-30T08:21:22.495Z,12.32
2023-01-30T08:23:49.519Z,10.60
2023-01-30T08:26:16.536Z,8.52
2023-01-30T08:28:43.625Z,8.35
2023-01-30T08:31:11.434Z,6.95
2023-01-30T08:33:38.573Z,7.35
2023-01-30T08:36:05.850Z,8.18
2023-01-30T08:38:33.018Z,6.60
2023-01-30T08:41:01.008Z,6.65
2023-01-30T08:43:28.185Z,9.02
2023-01-30T08:45:55.439Z,9.32
2023-01-30T08:48:22.550Z,6.32
2023-01-30T08:50:52.837Z,6.88
2023-01-30T08:53:19.915Z,7.85
2023-01-30T08:55:46.957Z,7.20
2023-01-30T08:58:14.072Z,8.00
2023-01-30T09:00:44.310Z,7.68
2023-01-30T09:03:12.068Z,6.40
2023-01-30T09:05:39.115Z,6.45
2023-01-30T09:08:06.134Z,5.60
2023-01-30T09:10:33.168Z,6.00
2023-01-30T09:13:00.160Z,6.32
2023-01-30T09:15:27.256Z,7.00
2023-01-30T09:17:54.316Z,8.07
2023-01-30T09:20:21.358Z,7.43
2023-01-30T09:22:49.404Z,6.32
2023-01-30T09:25:17.309Z,6.07
2023-01-30T09:27:44.902Z,5.65
2023-01-30T09:30:12.304Z,4.85
2023-01-30T09:32:39.272Z,7.22
2023-01-30T09:35:06.423Z,4.70
2023-01-30T09:37:33.417Z,5.80
2023-01-30T09:40:00.468Z,6.35
2023-01-30T09:42:30.560Z,4.43
2023-01-30T09:45:04.555Z,6.93
2023-01-30T09:47:38.589Z,4.03
2023-01-30T09:50:08.773Z,4.30
2023-01-30T09:52:38.912Z,4.25
2023-01-30T09:55:19.161Z,4.03
2023-01-30T09:57:47.181Z,4.45
2023-01-30T10:00:25.704Z,5.07
2023-01-30T10:02:54.465Z,4.75
2023-01-30T10:05:22.022Z,4.05
2023-01-30T10:07:58.300Z,3.22
2023-01-30T10:10:40.613Z,3.47
2023-01-30T10:13:13.455Z,4.45
2023-01-30T10:16:00.742Z,5.97
2023-01-30T10:18:41.383Z,3.85
2023-01-30T10:23:51.753Z,2.97
2023-01-30T10:26:22.714Z,4.43
2023-01-30T10:29:06.747Z,4.82
2023-01-30T10:31:57.805Z,5.43
2023-01-30T10:34:26.160Z,4.70
2023-01-30T10:36:55.194Z,8.00
2023-01-30T10:39:23.835Z,8.20
2023-01-30T10:42:23.370Z,7.40
2023-01-30T10:44:50.436Z,7.18
2023-01-30T10:47:47.049Z,7.18
2023-01-30T10:50:16.670Z,5.78
2023-01-30T10:53:02.204Z,5.60
2023-01-30T10:55:37.637Z,7.38
2023-01-30T10:58:12.378Z,9.95
2023-01-30T11:00:40.780Z,8.15
2023-01-30T11:03:16.853Z,6.65
2023-01-30T11:05:46.885Z,8.30
2023-01-30T11:08:21.895Z,8.10
2023-01-30T11:10:49.079Z,12.45
2023-01-30T11:13:20.266Z,12.25
2023-01-30T11:15:48.541Z,9.02
2023-01-30T11:19:01.693Z,8.45
2023-01-30T11:21:04.178Z,6.95
2023-01-30T11:23:43.722Z,6.30
2023-01-30T11:26:47.290Z,8.38
2023-01-30T11:29:25.841Z,6.72
2023-01-30T11:31:53.225Z,11.13
2023-01-30T11:34:21.011Z,10.10
2023-01-30T11:36:48.163Z,9.20
2023-01-30T11:39:16.377Z,9.65
2023-01-30T11:41:43.844Z,8.52
2023-01-30T11:44:10.938Z,5.03
2023-01-30T11:46:38.978Z,5.78
2023-01-30T11:49:44.949Z,9.02
2023-01-30T11:51:54.193Z,4.70
2023-01-30T11:54:28.056Z,3.72
2023-01-30T11:56:56.027Z,11.85
2023-01-30T11:59:23.084Z,5.18
2023-01-30T12:01:50.103Z,8.95
2023-01-30T12:04:17.176Z,5.25
2023-01-30T12:06:44.308Z,6.85
2023-01-30T12:09:29.544Z,8.38
2023-01-30T12:11:56.642Z,8.60
2023-01-30T12:14:37.975Z,10.75
2023-01-30T12:17:07.954Z,7.45
2023-01-30T12:19:37.974Z,14.00
2023-01-30T12:22:09.622Z,9.90
2023-01-30T12:24:39.222Z,12.57
2023-01-30T12:27:12.311Z,7.93
2023-01-30T12:29:46.661Z,5.97
2023-01-30T12:32:17.072Z,10.20
2023-01-30T12:34:48.200Z,11.95
2023-01-30T12:37:30.477Z,11.40
2023-01-30T12:40:16.162Z,8.57
2023-01-30T12:42:47.671Z,8.52
2023-01-30T12:45:14.710Z,5.05
2023-01-30T12:48:01.186Z,10.77
2023-01-30T12:50:41.870Z,7.65
2023-01-30T12:53:27.572Z,17.63
2023-01-30T12:55:57.349Z,13.05
2023-01-30T12:58:45.642Z,13.27
2023-01-30T13:01:31.600Z,15.60
2023-01-30T13:04:01.631Z,12.68
2023-01-30T13:06:31.468Z,12.20
2023-01-30T13:09:05.153Z,15.02
2023-01-30T13:11:41.513Z,13.32
2023-01-30T13:14:11.531Z,14.90
2023-01-30T13:16:57.812Z,15.98
2023-01-30T13:19:31.236Z,17.27
2023-01-30T13:22:33.576Z,15.13
2023-01-30T13:25:12.786Z,14.57
2023-01-30T13:27:39.887Z,18.88
2023-01-30T13:30:10.282Z,21.63
2023-01-30T13:32:44.526Z,16.55
2023-01-30T13:35:16.655Z,14.25
2023-01-30T13:37:43.734Z,14.23
2023-01-30T13:40:18.791Z,13.85
2023-01-30T13:42:49.117Z,15.73
2023-01-30T13:45:20.960Z,14.45
2023-01-30T13:48:01.847Z,16.55
2023-01-30T13:50:35.935Z,15.73
2023-01-30T13:53:08.381Z,15.45
2023-01-30T13:55:45.894Z,11.40
2023-01-30T13:58:18.649Z,10.75
2023-01-30T14:00:55.213Z,15.30
2023-01-30T14:03:35.191Z,16.25
2023-01-30T14:06:03.247Z,12.82
2023-01-30T14:08:30.879Z,12.50
2023-01-30T14:10:58.196Z,19.67
2023-01-30T14:13:25.595Z,19.10
2023-01-30T14:15:56.349Z,13.35
2023-01-30T14:18:24.346Z,12.02
2023-01-30T14:20:51.609Z,19.95
2023-01-30T14:23:24.734Z,13.15
2023-01-30T14:25:52.748Z,12.52
2023-01-30T14:28:19.861Z,10.23
2023-01-30T14:30:53.575Z,16.23
2023-01-30T14:33:23.973Z,13.02
2023-01-30T14:36:03.174Z,12.82
2023-01-30T14:38:30.766Z,14.40
2023-01-30T14:41:00.930Z,13.40
2023-01-30T14:43:43.363Z,13.18
2023-01-30T14:46:33.614Z,11.73
2023-01-30T14:49:05.250Z,15.32
2023-01-30T14:51:35.306Z,10.40
2023-01-30T14:54:17.238Z,10.40
2023-01-30T14:56:44.352Z,13.55
2023-01-30T14:59:17.413Z,10.52
2023-01-30T15:01:53.916Z,14.05
2023-01-30T15:04:21.069Z,9.80
2023-01-30T15:06:48.196Z,18.05
2023-01-30T15:09:19.057Z,10.65
2023-01-30T15:11:47.127Z,14.18
2023-01-30T15:14:20.527Z,12.07
2023-01-30T15:16:53.507Z,19.52
2023-01-30T15:19:36.838Z,18.45
2023-01-30T15:22:07.049Z,14.95
2023-01-30T15:24:52.598Z,11.98
2023-01-30T15:27:19.623Z,16.30
2023-01-30T15:29:53.479Z,13.88
2023-01-30T15:32:21.432Z,15.27
2023-01-30T15:34:55.995Z,14.70
2023-01-30T15:37:41.452Z,14.05
2023-01-30T15:40:20.431Z,20.77
2023-01-30T15:43:05.707Z,21.25
2023-01-30T15:45:51.533Z,16.63
2023-01-30T15:48:29.285Z,16.27
2023-01-30T15:50:57.459Z,10.27
2023-01-30T15:53:30.927Z,15.75
2023-01-30T15:55:58.545Z,11.43
2023-01-30T15:58:25.593Z,17.17
2023-01-30T16:00:53.638Z,22.02
2023-01-30T16:03:21.666Z,19.33
2023-01-30T16:05:52.580Z,14.23
2023-01-30T16:08:20.607Z,21.10
2023-01-30T16:10:47.708Z,9.18
2023-01-30T16:13:14.720Z,21.02
2023-01-30T16:15:44.850Z,15.75
2023-01-30T16:18:25.814Z,19.55
2023-01-30T16:21:01.725Z,19.50
2023-01-30T16:23:35.864Z,23.83
2023-01-30T16:26:03.580Z,19.85
2023-01-30T16:28:30.717Z,19.33
2023-01-30T16:30:58.997Z,24.45
2023-01-30T16:33:26.085Z,20.95
2023-01-30T16:35:53.136Z,17.98
2023-01-30T16:38:49.662Z,28.88
2023-01-30T16:41:35.896Z,20.30
2023-01-30T16:44:22.048Z,25.20
2023-01-30T16:46:50.524Z,19.77
2023-01-30T16:49:17.573Z,14.95
2023-01-30T16:51:44.665Z,17.58
2023-01-30T16:54:16.650Z,23.58
2023-01-30T16:56:45.688Z,29.55
2023-01-30T16:59:14.117Z,27.38
2023-01-30T17:01:41.243Z,21.50
2023-01-30T17:04:09.222Z,22.00
2023-01-30T17:06:39.721Z,19.73
2023-01-30T17:09:09.246Z,18.77
2023-01-30T17:11:37.039Z,22.27
2023-01-30T17:14:11.249Z,17.45
2023-01-30T17:16:40.273Z,23.08
2023-01-30T17:19:07.268Z,24.08
2023-01-30T17:21:44.370Z,21.52
2023-01-30T17:24:12.581Z,17.30
2023-01-30T17:26:40.834Z,17.95
2023-01-30T17:29:17.061Z,21.50
2023-01-30T17:31:51.213Z,17.42
2023-01-30T17:34:19.558Z,21.83
2023-01-30T17:36:46.682Z,15.65
2023-01-30T17:39:14.502Z,19.92
2023-01-30T17:41:41.844Z,18.35
2023-01-30T17:44:09.181Z,17.23
2023-01-30T17:46:37.301Z,23.85
2023-01-30T17:49:04.402Z,18.10
2023-01-30T17:51:31.446Z,14.73
2023-01-30T17:53:58.586Z,20.75
2023-01-30T17:56:32.907Z,25.75
2023-01-30T17:59:01.075Z,42.10
2023-01-30T18:01:28.178Z,25.77
2023-01-30T18:03:55.220Z,19.70
2023-01-30T18:06:22.309Z,24.27
2023-01-30T18:08:49.331Z,19.73
2023-01-30T18:11:17.273Z,20.92
2023-01-30T18:13:46.943Z,20.67
2023-01-30T18:16:21.363Z,23.57
2023-01-30T18:18:48.532Z,17.02
2023-01-30T18:21:15.587Z,17.70
2023-01-30T18:23:42.679Z,21.33
2023-01-30T18:26:11.485Z,21.42
2023-01-30T18:28:38.863Z,18.63
2023-01-30T18:31:06.148Z,21.50
2023-01-30T18:33:36.257Z,33.13
2023-01-30T18:36:06.688Z,23.23
2023-01-30T18:38:33.690Z,18.10
2023-01-30T18:41:06.243Z,24.67
2023-01-30T18:43:33.388Z,20.92
2023-01-30T18:46:04.191Z,22.02
2023-01-30T18:48:31.944Z,22.75
2023-01-30T18:51:12.652Z,30.27
2023-01-30T18:53:39.799Z,23.23
2023-01-30T18:56:10.271Z,23.42
2023-01-30T18:58:37.378Z,23.52
2023-01-30T19:01:11.109Z,28.63
2023-01-30T19:03:38.310Z,37.22
2023-01-30T19:06:05.496Z,28.67
2023-01-30T19:08:32.517Z,34.30
2023-01-30T19:11:26.993Z,26.92
2023-01-30T19:13:54.440Z,26.23
2023-01-30T19:16:21.993Z,25.15
2023-01-30T19:18:49.734Z,24.27
2023-01-30T19:21:17.362Z,24.42
2023-01-30T19:23:44.474Z,21.75
2023-01-30T19:26:11.732Z,30.15
2023-01-30T19:28:39.128Z,18.80
2023-01-30T19:31:06.903Z,27.35
2023-01-30T19:33:34.057Z,26.45
2023-01-30T19:36:14.101Z,28.00
2023-01-30T19:38:41.320Z,33.78
2023-01-30T19:41:12.025Z,24.30
2023-01-30T19:43:39.177Z,24.27
2023-01-30T19:46:06.316Z,25.75
2023-01-30T19:48:33.393Z,27.38
2023-01-30T19:51:05.379Z,26.75
2023-01-30T19:53:33.347Z,22.13
2023-01-30T19:56:00.418Z,23.48
2023-01-30T19:58:27.457Z,31.67
2023-01-30T20:00:54.505Z,21.88
2023-01-30T20:03:21.498Z,25.90
2023-01-30T20:05:48.514Z,23.95
2023-01-30T20:08:31.430Z,22.33
2023-01-30T20:11:03.290Z,26.92
2023-01-30T20:13:30.310Z,24.35
2023-01-30T20:16:05.235Z,30.33
2023-01-30T20:18:34.950Z,24.85
2023-01-30T20:21:20.489Z,38.53
2023-01-30T20:23:47.839Z,27.05
2023-01-30T20:26:17.127Z,24.92
2023-01-30T20:28:44.254Z,29.90
2023-01-30T20:31:12.144Z,21.35
2023-01-30T20:33:39.242Z,21.45
2023-01-30T20:36:06.951Z,25.55
2023-01-30T20:38:34.528Z,27.83
2023-01-30T20:41:09.378Z,25.13
2023-01-30T20:43:40.391Z,22.65
2023-01-30T20:46:11.021Z,29.42
2023-01-30T20:51:09.090Z,19.23
2023-01-30T20:53:36.283Z,28.80
2023-01-30T20:56:03.628Z,26.45
2023-01-30T20:58:30.769Z,21.88
2023-01-30T21:00:58.046Z,21.23
2023-01-30T21:03:27.774Z,32.05
2023-01-30T21:06:01.517Z,29.42
2023-01-30T21:08:28.810Z,25.90
2023-01-30T21:11:09.977Z,22.92
2023-01-30T21:13:37.062Z,25.65
2023-01-30T21:16:13.271Z,22.95
2023-01-30T21:18:40.910Z,30.52
2023-01-30T21:21:08.465Z,24.75
2023-01-30T21:23:35.592Z,25.92
2023-01-30T21:26:05.969Z,19.00
2023-01-30T21:28:33.140Z,20.38
2023-01-30T21:31:06.473Z,22.83
2023-01-30T21:33:33.690Z,22.35
2023-01-30T21:36:00.913Z,26.58
2023-01-30T21:38:46.910Z,27.88
2023-01-30T21:41:34.476Z,22.33
2023-01-30T21:44:01.789Z,23.48
2023-01-30T21:46:29.479Z,26.90
2023-01-30T21:48:56.736Z,30.45
2023-01-30T21:51:25.251Z,24.63
2023-01-30T21:53:55.930Z,25.45
2023-01-30T21:56:23.265Z,21.33
2023-01-30T21:58:50.260Z,19.95
2023-01-30T22:01:17.373Z,19.83
2023-01-30T22:03:44.733Z,28.63
2023-01-30T22:06:12.743Z,23.35
2023-01-30T22:08:40.043Z,22.27
2023-01-30T22:11:11.480Z,19.65
2023-01-30T22:13:38.867Z,19.52
2023-01-30T22:16:06.712Z,19.38
2023-01-30T22:18:33.966Z,30.65
2023-01-30T22:21:07.941Z,27.65
2023-01-30T22:23:36.267Z,17.85
2023-01-30T22:26:03.596Z,21.10
2023-01-30T22:28:30.758Z,24.92
2023-01-30T22:31:09.375Z,25.08
2023-01-30T22:33:36.663Z,34.75
2023-01-30T22:36:04.983Z,22.50
2023-01-30T22:38:32.051Z,29.83
2023-01-30T22:41:00.957Z,18.95
2023-01-30T22:43:28.524Z,21.88
2023-01-30T22:46:02.290Z,29.08
2023-01-30T22:48:29.760Z,23.60
2023-01-30T22:51:01.205Z,25.83
2023-01-30T22:53:31.215Z,21.98
2023-01-30T22:55:59.837Z,18.38
2023-01-30T22:58:26.852Z,29.63
2023-01-30T23:00:53.859Z,27.50
2023-01-30T23:03:20.896Z,21.02
2023-01-30T23:06:00.391Z,29.30
2023-01-30T23:08:29.388Z,19.88
2023-01-30T23:10:56.372Z,21.02
2023-01-30T23:13:23.421Z,21.60
2023-01-30T23:15:50.475Z,25.92
2023-01-30T23:18:36.674Z,20.10
2023-01-30T23:21:03.684Z,21.15
2023-01-30T23:23:31.002Z,19.45
2023-01-30T23:25:58.043Z,22.13
2023-01-30T23:28:25.076Z,15.45
2023-01-30T23:30:52.095Z,18.35
2023-01-30T23:33:19.160Z,20.95
2023-01-30T23:35:46.375Z,23.20
2023-01-30T23:38:16.335Z,16.50
2023-01-30T23:40:43.608Z,18.75
2023-01-30T23:43:10.754Z,21.90
2023-01-30T23:45:40.621Z,21.48
2023-01-30T23:48:08.480Z,19.05
2023-01-30T23:50:37.473Z,23.95
2023-01-30T23:53:08.137Z,23.08
2023-01-30T23:58:02.141Z,25.02
